createdAt,value
2019-05-05T00:01:48.076Z,96301.38
2019-05-05T00:04:28.786Z,96308.81
2019-05-05T00:06:59.998Z,96314.30
2019-05-05T00:09:31.341Z,96319.48
2019-05-05T00:12:18.989Z,96318.38
2019-05-05T00:15:08.128Z,96317.73
2019-05-05T00:17:39.695Z,96319.48
2019-05-05T00:20:11.572Z,96316.34
2019-05-05T00:22:45.414Z,96308.61
2019-05-05T00:25:16.264Z,96306.98
2019-05-05T00:27:47.327Z,96309.22
2019-05-05T00:30:18.475Z,96301.39
2019-05-05T00:32:49.528Z,96299.55
2019-05-05T00:35:21.000Z,96290.47
2019-05-05T00:37:52.024Z,96291.29
2019-05-05T00:40:24.835Z,96295.23
2019-05-05T00:42:56.028Z,96288.39
2019-05-05T00:45:29.136Z,96291.45
2019-05-05T00:48:06.843Z,96304.91
2019-05-05T00:50:37.977Z,96310.84
2019-05-05T00:53:08.955Z,96310.88
2019-05-05T00:55:39.955Z,96318.98
2019-05-05T00:58:10.938Z,96325.82
2019-05-05T01:00:54.796Z,96322.16
2019-05-05T01:03:27.294Z,96321.90
2019-05-05T01:06:14.984Z,96323.66
2019-05-05T01:08:45.772Z,96328.06
2019-05-05T01:11:17.723Z,96324.89
2019-05-05T01:13:48.778Z,96326.53
2019-05-05T01:16:20.013Z,96323.28
2019-05-05T01:18:51.000Z,96334.18
2019-05-05T01:21:24.290Z,96339.91
2019-05-05T01:23:54.984Z,96351.44
2019-05-05T01:26:26.067Z,96361.00
2019-05-05T01:28:57.147Z,96366.34
2019-05-05T01:31:28.262Z,96373.66
2019-05-05T01:34:15.210Z,96378.11
2019-05-05T01:36:48.592Z,96382.27
2019-05-05T01:39:28.198Z,96378.56
2019-05-05T01:42:01.891Z,96374.49
2019-05-05T01:44:35.103Z,96381.50
2019-05-05T01:47:06.030Z,96381.73
2019-05-05T01:49:37.110Z,96388.39
2019-05-05T01:52:08.278Z,96389.44
2019-05-05T01:54:39.272Z,96384.81
2019-05-05T01:57:10.602Z,96383.02
2019-05-05T01:59:42.292Z,96387.87
2019-05-05T02:02:14.596Z,96381.01
2019-05-05T02:04:45.949Z,96383.63
2019-05-05T02:07:17.014Z,96388.88
2019-05-05T02:09:48.079Z,96377.48
2019-05-05T02:12:19.173Z,96375.36
2019-05-05T02:14:50.365Z,96379.40
2019-05-05T02:17:21.500Z,96378.72
2019-05-05T02:19:54.802Z,96377.41
2019-05-05T02:22:25.604Z,96383.66
2019-05-05T02:24:56.736Z,96383.13
2019-05-05T02:27:27.879Z,96386.02
2019-05-05T02:30:16.181Z,96389.52
2019-05-05T02:32:50.014Z,96386.97
2019-05-05T02:35:21.160Z,96389.34
2019-05-05T02:37:52.156Z,96388.37
2019-05-05T02:40:24.540Z,96386.80
2019-05-05T02:42:56.025Z,96383.45
2019-05-05T02:46:30.424Z,96386.45
2019-05-05T02:49:05.294Z,96383.66
2019-05-05T02:51:37.017Z,96390.66
2019-05-05T02:54:08.170Z,96385.22
2019-05-05T02:56:46.493Z,96392.05
2019-05-05T02:59:25.680Z,96395.34
2019-05-05T03:02:04.154Z,96396.19
2019-05-05T03:04:36.267Z,96407.00
2019-05-05T03:07:09.111Z,96410.66
2019-05-05T03:09:43.975Z,96406.58
2019-05-05T03:12:17.404Z,96401.39
2019-05-05T03:14:50.477Z,96408.68
2019-05-05T03:17:23.461Z,96408.23
2019-05-05T03:19:55.379Z,96412.69
2019-05-05T03:22:27.898Z,96411.37
2019-05-05T03:24:59.274Z,96421.76
2019-05-05T03:27:30.465Z,96415.36
2019-05-05T03:30:05.014Z,96417.85
2019-05-05T03:32:36.300Z,96414.05
2019-05-05T03:35:07.800Z,96408.30
2019-05-05T03:37:39.304Z,96409.86
2019-05-05T03:40:18.963Z,96415.30
2019-05-05T03:43:00.995Z,96421.51
2019-05-05T03:45:53.971Z,96418.89
2019-05-05T03:48:25.569Z,96425.55
2019-05-05T03:50:57.764Z,96427.56
2019-05-05T03:53:29.355Z,96428.86
2019-05-05T03:56:00.732Z,96433.16
2019-05-05T03:58:34.348Z,96441.52
2019-05-05T04:01:34.598Z,96445.22
2019-05-05T04:04:24.496Z,96442.48
2019-05-05T04:06:56.508Z,96443.06
2019-05-05T04:09:27.575Z,96441.30
2019-05-05T04:11:58.680Z,96443.98
2019-05-05T04:14:29.757Z,96443.86
2019-05-05T04:17:24.476Z,96439.52
2019-05-05T04:19:56.819Z,96445.62
2019-05-05T04:22:27.907Z,96450.58
2019-05-05T04:24:58.901Z,96447.42
2019-05-05T04:27:30.234Z,96443.01
2019-05-05T04:30:03.842Z,96441.55
2019-05-05T04:32:36.185Z,96452.83
2019-05-05T04:35:07.571Z,96456.93
2019-05-05T04:37:38.710Z,96453.73
2019-05-05T04:40:10.015Z,96456.63
2019-05-05T04:42:41.028Z,96462.28
2019-05-05T04:45:14.841Z,96462.28
2019-05-05T04:47:49.142Z,96458.42
2019-05-05T04:50:34.642Z,96464.06
2019-05-05T04:53:09.753Z,96461.91
2019-05-05T04:55:40.747Z,96454.01
2019-05-05T04:58:13.671Z,96458.17
2019-05-05T05:00:45.100Z,96459.17
2019-05-05T05:03:35.090Z,96463.22
2019-05-05T05:06:14.650Z,96454.74
2019-05-05T05:08:45.608Z,96458.59
2019-05-05T05:11:16.595Z,96465.37
2019-05-05T05:13:47.656Z,96465.95
2019-05-05T05:16:18.660Z,96464.88
2019-05-05T05:18:49.660Z,96476.53
2019-05-05T05:21:20.666Z,96475.28
2019-05-05T05:23:53.449Z,96477.46
2019-05-05T05:26:24.376Z,96480.81
2019-05-05T05:28:55.383Z,96484.28
2019-05-05T05:31:26.390Z,96489.89
2019-05-05T05:33:57.473Z,96491.25
2019-05-05T05:36:28.462Z,96502.42
2019-05-05T05:39:05.759Z,96509.39
2019-05-05T05:41:43.673Z,96512.66
2019-05-05T05:44:38.396Z,96515.84
2019-05-05T05:47:17.241Z,96512.61
2019-05-05T05:49:54.429Z,96522.66
2019-05-05T05:52:25.390Z,96520.58
2019-05-05T05:54:56.403Z,96525.57
2019-05-05T05:57:27.591Z,96532.77
2019-05-05T05:59:58.550Z,96537.56
2019-05-05T06:02:29.555Z,96539.08
2019-05-05T06:05:00.545Z,96543.48
2019-05-05T06:07:33.500Z,96540.39
2019-05-05T06:10:04.949Z,96550.84
2019-05-05T06:12:36.519Z,96549.00
2019-05-05T06:15:07.753Z,96548.21
2019-05-05T06:17:39.032Z,96542.95
2019-05-05T06:20:10.315Z,96548.66
2019-05-05T06:22:41.323Z,96549.86
2019-05-05T06:25:16.012Z,96560.00
2019-05-05T06:27:45.218Z,96558.53
2019-05-05T06:30:16.754Z,96561.66
2019-05-05T06:32:47.908Z,96563.09
2019-05-05T06:35:19.351Z,96560.03
2019-05-05T06:37:54.538Z,96564.34
2019-05-05T06:40:41.214Z,96568.14
2019-05-05T06:43:29.862Z,96565.95
2019-05-05T06:46:04.073Z,96570.80
2019-05-05T06:48:35.286Z,96565.80
2019-05-05T06:51:06.757Z,96570.73
2019-05-05T06:53:37.973Z,96566.61
2019-05-05T06:56:09.099Z,96573.39
2019-05-05T06:58:40.136Z,96571.95
2019-05-05T07:01:11.231Z,96572.91
2019-05-05T07:03:43.890Z,96577.02
2019-05-05T07:06:15.212Z,96584.55
2019-05-05T07:08:46.309Z,96590.78
2019-05-05T07:11:17.688Z,96587.47
2019-05-05T07:13:48.791Z,96591.98
2019-05-05T07:16:19.845Z,96596.91
2019-05-05T07:18:50.866Z,96601.02
2019-05-05T07:21:23.929Z,96605.80
2019-05-05T07:23:54.994Z,96612.36
2019-05-05T07:26:26.082Z,96616.32
2019-05-05T07:28:57.558Z,96614.16
2019-05-05T07:31:28.626Z,96612.95
2019-05-05T07:33:59.835Z,96619.95
2019-05-05T07:36:38.899Z,96621.11
2019-05-05T07:39:11.335Z,96621.39
2019-05-05T07:41:44.552Z,96625.45
2019-05-05T07:44:25.921Z,96628.97
2019-05-05T07:46:48.108Z,96632.97
2019-05-05T07:49:19.432Z,96636.08
2019-05-05T07:51:50.440Z,96634.27
2019-05-05T07:54:23.530Z,96642.72
2019-05-05T07:56:54.658Z,96644.90
2019-05-05T07:59:25.995Z,96641.54
2019-05-05T08:01:57.760Z,96646.77
2019-05-05T08:04:28.857Z,96656.69
2019-05-05T08:06:59.912Z,96661.11
2019-05-05T08:09:30.935Z,96668.13
2019-05-05T08:12:04.209Z,96668.90
2019-05-05T08:14:35.064Z,96667.12
2019-05-05T08:17:29.543Z,96666.63
2019-05-05T08:20:07.886Z,96671.28
2019-05-05T08:22:39.130Z,96678.52
2019-05-05T08:25:36.345Z,96677.33
2019-05-05T08:28:17.449Z,96677.25
2019-05-05T08:31:10.271Z,96675.52
2019-05-05T08:33:41.352Z,96677.44
2019-05-05T08:36:14.545Z,96678.01
2019-05-05T08:38:45.290Z,96677.81
2019-05-05T08:41:16.279Z,96674.96
2019-05-05T08:43:47.373Z,96672.34
2019-05-05T08:46:18.369Z,96673.62
2019-05-05T08:48:50.477Z,96674.33
2019-05-05T08:51:21.526Z,96672.27
2019-05-05T08:53:54.424Z,96666.41
2019-05-05T08:56:25.690Z,96668.92
2019-05-05T08:58:57.935Z,96674.62
2019-05-05T09:01:28.923Z,96667.12
2019-05-05T09:04:00.058Z,96666.86
2019-05-05T09:06:31.111Z,96667.16
2019-05-05T09:09:03.858Z,96660.33
2019-05-05T09:11:36.759Z,96660.77
2019-05-05T09:14:08.023Z,96659.16
2019-05-05T09:16:39.084Z,96651.16
2019-05-05T09:19:14.671Z,96659.93
2019-05-05T09:21:46.682Z,96652.39
2019-05-05T09:24:36.599Z,96651.98
2019-05-05T09:27:34.532Z,96656.45
2019-05-05T09:30:06.522Z,96660.20
2019-05-05T09:32:37.654Z,96658.48
2019-05-05T09:35:09.211Z,96655.86
2019-05-05T09:37:40.775Z,96658.30
2019-05-05T09:40:13.906Z,96652.55
2019-05-05T09:42:45.007Z,96659.71
2019-05-05T09:45:17.308Z,96656.11
2019-05-05T09:47:48.824Z,96656.22
2019-05-05T09:50:20.204Z,96657.08
2019-05-05T09:52:51.206Z,96657.41
2019-05-05T09:55:24.078Z,96663.70
2019-05-05T09:57:56.247Z,96662.94
2019-05-05T10:00:27.399Z,96667.47
2019-05-05T10:02:58.614Z,96666.41
2019-05-05T10:05:29.869Z,96668.95
2019-05-05T10:08:01.040Z,96670.91
2019-05-05T10:10:33.723Z,96666.79
2019-05-05T10:13:06.008Z,96664.33
2019-05-05T10:15:37.074Z,96667.88
2019-05-05T10:18:08.092Z,96667.25
2019-05-05T10:20:39.327Z,96671.12
2019-05-05T10:23:10.478Z,96677.10
2019-05-05T10:25:47.790Z,96677.10
2019-05-05T10:28:19.046Z,96675.38
2019-05-05T10:30:50.346Z,96681.95
2019-05-05T10:33:21.469Z,96677.19
2019-05-05T10:35:54.115Z,96676.47
2019-05-05T10:38:25.311Z,96677.78
2019-05-05T10:40:56.412Z,96681.23
2019-05-05T10:43:27.641Z,96688.16
2019-05-05T10:46:03.968Z,96683.58
2019-05-05T10:48:35.024Z,96678.15
2019-05-05T10:51:06.856Z,96683.02
2019-05-05T10:53:38.001Z,96686.46
2019-05-05T10:56:09.003Z,96687.03
2019-05-05T10:58:41.131Z,96685.53
2019-05-05T11:01:14.357Z,96683.73
2019-05-05T11:03:45.365Z,96693.62
2019-05-05T11:06:16.993Z,96683.84
2019-05-05T11:08:48.433Z,96690.70
2019-05-05T11:11:19.512Z,96689.82
2019-05-05T11:13:50.612Z,96690.63
2019-05-05T11:16:21.728Z,96694.09
2019-05-05T11:18:54.025Z,96695.69
2019-05-05T11:21:25.415Z,96698.84
2019-05-05T11:23:56.476Z,96697.99
2019-05-05T11:26:27.566Z,96694.72
2019-05-05T11:28:58.624Z,96693.91
2019-05-05T11:31:29.819Z,96696.81
2019-05-05T11:34:09.841Z,96699.88
2019-05-05T11:37:03.712Z,96698.59
2019-05-05T11:39:34.881Z,96697.66
2019-05-05T11:42:07.038Z,96693.45
2019-05-05T11:44:38.365Z,96692.77
2019-05-05T11:47:09.502Z,96694.95
2019-05-05T11:49:40.638Z,96689.70
2019-05-05T11:52:11.620Z,96702.06
2019-05-05T11:54:43.873Z,96698.92
2019-05-05T11:57:15.524Z,96702.66
2019-05-05T11:59:46.555Z,96701.63
2019-05-05T12:02:17.578Z,96699.94
2019-05-05T12:04:48.752Z,96703.69
2019-05-05T12:07:19.761Z,96695.42
2019-05-05T12:09:56.931Z,96695.03
2019-05-05T12:12:28.099Z,96687.77
2019-05-05T12:14:59.215Z,96692.41
2019-05-05T12:17:36.562Z,96695.26
2019-05-05T12:20:09.426Z,96697.06
2019-05-05T12:22:40.416Z,96694.53
2019-05-05T12:25:31.145Z,96690.48
2019-05-05T12:28:06.897Z,96701.92
2019-05-05T12:30:38.045Z,96701.33
2019-05-05T12:33:09.054Z,96700.41
2019-05-05T12:35:40.161Z,96697.27
2019-05-05T12:38:11.169Z,96695.84
2019-05-05T12:40:44.171Z,96691.40
2019-05-05T12:43:15.409Z,96690.59
2019-05-05T12:45:48.824Z,96681.69
2019-05-05T12:48:29.280Z,96691.30
2019-05-05T12:51:00.934Z,96694.03
2019-05-05T12:53:31.929Z,96692.53
2019-05-05T12:56:04.062Z,96693.42
2019-05-05T12:58:35.476Z,96694.73
2019-05-05T13:01:19.728Z,96690.19
2019-05-05T13:03:50.781Z,96694.73
2019-05-05T13:06:23.847Z,96683.06
2019-05-05T13:08:54.985Z,96684.33
2019-05-05T13:11:26.431Z,96680.13
2019-05-05T13:13:58.710Z,96688.25
2019-05-05T13:16:29.940Z,96689.45
2019-05-05T13:19:04.387Z,96700.11
2019-05-05T13:22:09.919Z,96696.59
2019-05-05T13:24:55.845Z,96694.72
2019-05-05T13:27:30.264Z,96694.21
2019-05-05T13:30:01.301Z,96693.30
2019-05-05T13:32:33.653Z,96701.01
2019-05-05T13:35:06.374Z,96692.82
2019-05-05T13:37:37.498Z,96688.69
2019-05-05T13:40:09.469Z,96686.73
2019-05-05T13:42:40.704Z,96683.69
2019-05-05T13:45:28.453Z,96682.27
2019-05-05T13:47:59.456Z,96681.14
2019-05-05T13:50:34.634Z,96684.22
2019-05-05T13:53:05.857Z,96670.33
2019-05-05T13:55:37.767Z,96672.31
2019-05-05T13:58:09.093Z,96667.22
2019-05-05T14:00:40.384Z,96661.38
2019-05-05T14:03:11.400Z,96668.05
2019-05-05T14:05:43.711Z,96663.84
2019-05-05T14:08:15.176Z,96665.83
2019-05-05T14:10:46.310Z,96668.98
2019-05-05T14:13:17.328Z,96662.86
2019-05-05T14:15:48.632Z,96661.38
2019-05-05T14:18:19.655Z,96658.91
2019-05-05T14:20:50.669Z,96648.98
2019-05-05T14:23:23.897Z,96642.44
2019-05-05T14:25:54.685Z,96649.77
2019-05-05T14:28:25.778Z,96652.39
2019-05-05T14:31:02.637Z,96657.42
2019-05-05T14:33:54.100Z,96656.23
2019-05-05T14:36:38.362Z,96658.25
2019-05-05T14:39:10.982Z,96659.03
2019-05-05T14:41:44.482Z,96664.34
2019-05-05T14:44:15.534Z,96652.32
2019-05-05T14:46:46.777Z,96648.23
2019-05-05T14:49:17.769Z,96644.70
2019-05-05T14:51:48.848Z,96652.16
2019-05-05T14:54:19.892Z,96654.20
2019-05-05T14:56:50.977Z,96660.26
2019-05-05T14:59:23.520Z,96653.79
2019-05-05T15:01:54.570Z,96647.37
2019-05-05T15:04:27.455Z,96653.11
2019-05-05T15:07:23.919Z,96651.04
2019-05-05T15:10:14.486Z,96655.57
2019-05-05T15:12:49.549Z,96653.47
2019-05-05T15:15:20.738Z,96654.98
2019-05-05T15:17:53.698Z,96654.58
2019-05-05T15:20:24.629Z,96656.59
2019-05-05T15:22:55.682Z,96659.52
2019-05-05T15:25:26.990Z,96658.59
2019-05-05T15:27:59.098Z,96664.27
2019-05-05T15:30:30.119Z,96664.03
2019-05-05T15:33:01.515Z,96669.50
2019-05-05T15:35:33.971Z,96666.11
2019-05-05T15:38:05.252Z,96665.27
2019-05-05T15:40:36.317Z,96664.68
2019-05-05T15:43:08.466Z,96670.00
2019-05-05T15:45:39.595Z,96669.16
2019-05-05T15:48:10.660Z,96669.09
2019-05-05T15:50:43.839Z,96673.16
2019-05-05T15:53:14.663Z,96663.01
2019-05-05T15:55:45.936Z,96670.59
2019-05-05T15:58:20.670Z,96672.52
2019-05-05T16:00:50.353Z,96675.68
2019-05-05T16:03:21.383Z,96676.17
2019-05-05T16:05:54.227Z,96674.56
2019-05-05T16:08:25.165Z,96673.57
2019-05-05T16:10:56.243Z,96675.30
2019-05-05T16:13:27.399Z,96683.61
2019-05-05T16:16:19.360Z,96680.27
2019-05-05T16:19:05.555Z,96683.92
2019-05-05T16:21:40.339Z,96678.55
2019-05-05T16:24:20.013Z,96690.41
2019-05-05T16:26:51.134Z,96689.70
2019-05-05T16:29:23.783Z,96692.44
2019-05-05T16:31:55.025Z,96683.69
2019-05-05T16:34:26.208Z,96684.06
2019-05-05T16:36:57.337Z,96688.09
2019-05-05T16:39:28.361Z,96686.28
2019-05-05T16:41:59.434Z,96680.41
2019-05-05T16:44:30.497Z,96676.28
2019-05-05T16:47:01.587Z,96680.02
2019-05-05T16:49:35.294Z,96682.56
2019-05-05T16:52:11.076Z,96680.41
2019-05-05T16:55:04.522Z,96686.40
2019-05-05T16:57:36.904Z,96690.64
2019-05-05T17:00:08.909Z,96688.33
2019-05-05T17:02:40.025Z,96685.58
2019-05-05T17:05:13.634Z,96684.58
2019-05-05T17:07:44.246Z,96690.46
2019-05-05T17:10:15.837Z,96682.66
2019-05-05T17:12:47.037Z,96691.36
2019-05-05T17:15:45.580Z,96693.48
2019-05-05T17:18:54.180Z,96688.14
2019-05-05T17:21:44.552Z,96701.19
2019-05-05T17:24:15.752Z,96697.72
2019-05-05T17:26:46.840Z,96693.68
2019-05-05T17:29:17.930Z,96695.50
2019-05-05T17:31:49.102Z,96700.56
2019-05-05T17:34:20.129Z,96699.74
2019-05-05T17:36:51.216Z,96701.75
2019-05-05T17:39:23.875Z,96703.39
2019-05-05T17:42:05.684Z,96700.26
2019-05-05T17:44:55.624Z,96705.32
2019-05-05T17:47:34.353Z,96705.70
2019-05-05T17:50:11.724Z,96705.94
2019-05-05T17:52:53.739Z,96707.66
2019-05-05T17:55:29.061Z,96712.52
2019-05-05T17:58:02.593Z,96703.94
2019-05-05T18:00:35.308Z,96707.17
2019-05-05T18:03:08.501Z,96710.82
2019-05-05T18:05:57.771Z,96711.42
2019-05-05T18:08:59.867Z,96721.45
2019-05-05T18:11:44.065Z,96715.37
2019-05-05T18:14:20.098Z,96726.20
2019-05-05T18:16:51.280Z,96728.45
2019-05-05T18:19:22.357Z,96726.58
2019-05-05T18:21:54.739Z,96725.27
2019-05-05T18:24:25.959Z,96728.81
2019-05-05T18:26:57.210Z,96730.13
2019-05-05T18:29:28.287Z,96729.64
2019-05-05T18:31:59.730Z,96732.27
2019-05-05T18:34:31.050Z,96731.36
2019-05-05T18:37:03.739Z,96730.34
2019-05-05T18:39:34.965Z,96738.23
2019-05-05T18:42:34.165Z,96739.55
2019-05-05T18:45:09.467Z,96738.54
2019-05-05T18:47:40.453Z,96741.66
2019-05-05T18:50:13.629Z,96748.04
2019-05-05T18:52:47.142Z,96745.80
2019-05-05T18:55:17.608Z,96741.76
2019-05-05T18:57:48.775Z,96748.53
2019-05-05T19:00:30.097Z,96747.70
2019-05-05T19:03:17.476Z,96744.97
2019-05-05T19:05:49.253Z,96753.87
2019-05-05T19:08:29.452Z,96755.58
2019-05-05T19:11:00.607Z,96759.22
2019-05-05T19:13:33.892Z,96761.22
2019-05-05T19:16:04.513Z,96762.86
2019-05-05T19:18:36.630Z,96764.46
2019-05-05T19:21:29.357Z,96764.66
2019-05-05T19:24:00.515Z,96769.48
2019-05-05T19:26:33.646Z,96769.27
2019-05-05T19:29:05.158Z,96772.00
2019-05-05T19:31:36.686Z,96771.72
2019-05-05T19:34:09.101Z,96770.70
2019-05-05T19:36:40.168Z,96767.86
2019-05-05T19:39:13.552Z,96771.59
2019-05-05T19:41:46.918Z,96777.53
2019-05-05T19:44:17.009Z,96781.39
2019-05-05T19:46:56.668Z,96780.61
2019-05-05T19:49:28.748Z,96775.02
2019-05-05T19:51:59.834Z,96781.67
2019-05-05T19:54:30.918Z,96779.38
2019-05-05T19:57:03.815Z,96781.28
2019-05-05T19:59:35.855Z,96780.80
2019-05-05T20:02:08.095Z,96779.38
2019-05-05T20:04:39.588Z,96784.30
2019-05-05T20:07:10.764Z,96784.72
2019-05-05T20:09:43.565Z,96786.52
2019-05-05T20:12:14.846Z,96786.30
2019-05-05T20:14:45.982Z,96787.27
2019-05-05T20:17:23.350Z,96783.95
2019-05-05T20:19:54.731Z,96778.59
2019-05-05T20:22:25.847Z,96779.06
2019-05-05T20:24:56.962Z,96777.03
2019-05-05T20:27:28.086Z,96774.05
2019-05-05T20:30:00.347Z,96780.89
2019-05-05T20:32:40.760Z,96782.92
2019-05-05T20:35:35.272Z,96785.44
2019-05-05T20:38:26.759Z,96786.84
2019-05-05T20:41:14.542Z,96780.73
2019-05-05T20:43:45.839Z,96779.45
2019-05-05T20:46:17.670Z,96781.11
2019-05-05T20:48:48.810Z,96780.65
2019-05-05T20:51:19.931Z,96777.88
2019-05-05T20:53:50.951Z,96779.61
2019-05-05T20:56:22.453Z,96778.61
2019-05-05T20:58:54.930Z,96775.94
2019-05-05T21:01:27.234Z,96771.70
2019-05-05T21:03:58.246Z,96770.97
2019-05-05T21:06:29.279Z,96767.41
2019-05-05T21:09:00.285Z,96777.56
2019-05-05T21:11:31.951Z,96771.94
2019-05-05T21:14:04.030Z,96770.55
2019-05-05T21:16:35.097Z,96769.25
2019-05-05T21:19:06.233Z,96772.27
2019-05-05T21:21:39.342Z,96772.91
2019-05-05T21:24:10.480Z,96776.13
2019-05-05T21:27:04.077Z,96772.31
2019-05-05T21:29:41.422Z,96772.95
2019-05-05T21:32:07.605Z,96770.38
2019-05-05T21:34:39.355Z,96768.06
2019-05-05T21:37:10.430Z,96764.94
2019-05-05T21:39:41.496Z,96772.34
2019-05-05T21:42:14.112Z,96768.13
2019-05-05T21:44:45.214Z,96764.88
2019-05-05T21:47:16.211Z,96775.61
2019-05-05T21:49:47.276Z,96768.55
2019-05-05T21:52:34.766Z,96765.91
2019-05-05T21:55:18.580Z,96768.69
2019-05-05T21:58:05.069Z,96768.22
2019-05-05T22:00:54.768Z,96763.41
2019-05-05T22:03:34.563Z,96772.59
2019-05-05T22:06:06.977Z,96772.84
2019-05-05T22:08:38.038Z,96768.59
2019-05-05T22:11:09.555Z,96773.27
2019-05-05T22:13:40.561Z,96770.71
2019-05-05T22:16:13.504Z,96773.52
2019-05-05T22:18:46.697Z,96770.05
2019-05-05T22:21:26.532Z,96768.76
2019-05-05T22:24:16.089Z,96772.33
2019-05-05T22:26:47.326Z,96771.44
2019-05-05T22:29:18.605Z,96774.94
2019-05-05T22:31:49.712Z,96770.77
2019-05-05T22:34:20.811Z,96771.91
2019-05-05T22:36:51.801Z,96773.77
2019-05-05T22:39:24.356Z,96773.88
2019-05-05T22:41:55.648Z,96774.77
2019-05-05T22:44:26.703Z,96778.70
2019-05-05T22:46:57.744Z,96772.14
2019-05-05T22:49:28.893Z,96775.07
2019-05-05T22:52:00.573Z,96770.78
2019-05-05T22:54:33.674Z,96771.32
2019-05-05T22:57:04.742Z,96772.08
2019-05-05T22:59:35.803Z,96775.06
2019-05-05T23:02:06.953Z,96774.36
2019-05-05T23:04:47.936Z,96775.94
2019-05-05T23:07:24.339Z,96775.67
2019-05-05T23:09:55.348Z,96776.42
2019-05-05T23:12:26.350Z,96777.33
2019-05-05T23:14:57.641Z,96768.38
2019-05-05T23:17:43.913Z,96772.09
2019-05-05T23:21:10.041Z,96769.73
2019-05-05T23:23:56.325Z,96773.09
2019-05-05T23:26:28.792Z,96775.28
2019-05-05T23:29:00.611Z,96771.35
2019-05-05T23:31:33.447Z,96778.13
2019-05-05T23:34:04.586Z,96771.22
2019-05-05T23:36:35.657Z,96778.72
2019-05-05T23:39:08.022Z,96779.08
2019-05-05T23:41:39.791Z,96778.61
2019-05-05T23:44:10.904Z,96778.97
2019-05-05T23:46:41.980Z,96777.48
2019-05-05T23:49:13.756Z,96772.53
2019-05-05T23:51:44.938Z,96775.30
2019-05-05T23:54:15.939Z,96775.98
2019-05-05T23:56:48.175Z,96774.41
2019-05-05T23:59:19.206Z,96769.73
